sensor_id;sensor_type;location;lat;lon;timestamp;temperature;humidity
76613;DHT22;65507;48.454;-2.058;2023-02-04T00:00:17;10.70;71.90
76613;DHT22;65507;48.454;-2.058;2023-02-04T00:02:43;10.70;71.90
76613;DHT22;65507;48.454;-2.058;2023-02-04T00:05:09;10.70;71.90
76613;DHT22;65507;48.454;-2.058;2023-02-04T00:07:35;10.70;71.90
76613;DHT22;65507;48.454;-2.058;2023-02-04T00:10:01;10.70;72.00
76613;DHT22;65507;48.454;-2.058;2023-02-04T00:12:27;10.70;72.40
76613;DHT22;65507;48.454;-2.058;2023-02-04T00:14:52;10.70;71.90
76613;DHT22;65507;48.454;-2.058;2023-02-04T00:17:18;10.70;71.90
76613;DHT22;65507;48.454;-2.058;2023-02-04T00:19:43;10.70;72.00
76613;DHT22;65507;48.454;-2.058;2023-02-04T00:22:09;10.70;72.00
76613;DHT22;65507;48.454;-2.058;2023-02-04T00:24:35;10.70;72.10
76613;DHT22;65507;48.454;-2.058;2023-02-04T00:27:01;10.70;72.00
76613;DHT22;65507;48.454;-2.058;2023-02-04T00:29:27;10.70;72.00
76613;DHT22;65507;48.454;-2.058;2023-02-04T00:31:53;10.70;72.00
76613;DHT22;65507;48.454;-2.058;2023-02-04T00:34:18;10.70;71.90
76613;DHT22;65507;48.454;-2.058;2023-02-04T00:36:44;10.80;71.90
76613;DHT22;65507;48.454;-2.058;2023-02-04T00:39:09;10.70;71.90
76613;DHT22;65507;48.454;-2.058;2023-02-04T00:41:35;10.80;71.90
76613;DHT22;65507;48.454;-2.058;2023-02-04T00:44:00;10.80;71.90
76613;DHT22;65507;48.454;-2.058;2023-02-04T00:46:26;10.80;71.90
76613;DHT22;65507;48.454;-2.058;2023-02-04T00:48:52;10.70;71.90
76613;DHT22;65507;48.454;-2.058;2023-02-04T00:51:17;10.70;72.00
76613;DHT22;65507;48.454;-2.058;2023-02-04T00:53:43;10.70;72.10
76613;DHT22;65507;48.454;-2.058;2023-02-04T00:56:08;10.70;72.10
76613;DHT22;65507;48.454;-2.058;2023-02-04T00:58:34;10.70;72.00
76613;DHT22;65507;48.454;-2.058;2023-02-04T01:00:59;10.70;72.10
76613;DHT22;65507;48.454;-2.058;2023-02-04T01:03:25;10.70;72.10
76613;DHT22;65507;48.454;-2.058;2023-02-04T01:05:50;10.70;72.10
76613;DHT22;65507;48.454;-2.058;2023-02-04T01:08:16;10.70;72.00
76613;DHT22;65507;48.454;-2.058;2023-02-04T01:10:42;10.70;72.10
76613;DHT22;65507;48.454;-2.058;2023-02-04T01:13:07;10.70;72.00
76613;DHT22;65507;48.454;-2.058;2023-02-04T01:15:33;10.80;72.00
76613;DHT22;65507;48.454;-2.058;2023-02-04T01:17:59;10.70;72.00
76613;DHT22;65507;48.454;-2.058;2023-02-04T01:20:25;10.70;72.10
76613;DHT22;65507;48.454;-2.058;2023-02-04T01:22:50;10.70;72.20
76613;DHT22;65507;48.454;-2.058;2023-02-04T01:25:16;10.70;72.20
76613;DHT22;65507;48.454;-2.058;2023-02-04T01:27:44;10.60;72.20
76613;DHT22;65507;48.454;-2.058;2023-02-04T01:30:10;10.60;72.20
76613;DHT22;65507;48.454;-2.058;2023-02-04T01:32:36;10.60;72.30
76613;DHT22;65507;48.454;-2.058;2023-02-04T01:35:01;10.60;72.20
76613;DHT22;65507;48.454;-2.058;2023-02-04T01:37:27;10.60;72.30
76613;DHT22;65507;48.454;-2.058;2023-02-04T01:39:53;10.50;72.30
76613;DHT22;65507;48.454;-2.058;2023-02-04T01:42:18;10.60;72.50
76613;DHT22;65507;48.454;-2.058;2023-02-04T01:44:44;10.50;72.40
76613;DHT22;65507;48.454;-2.058;2023-02-04T01:47:10;10.60;72.50
76613;DHT22;65507;48.454;-2.058;2023-02-04T01:49:35;10.60;72.40
76613;DHT22;65507;48.454;-2.058;2023-02-04T01:52:01;10.60;72.40
76613;DHT22;65507;48.454;-2.058;2023-02-04T01:54:27;10.60;72.40
76613;DHT22;65507;48.454;-2.058;2023-02-04T01:56:52;10.60;72.30
76613;DHT22;65507;48.454;-2.058;2023-02-04T01:59:19;10.70;72.30
76613;DHT22;65507;48.454;-2.058;2023-02-04T02:01:46;10.70;72.30
76613;DHT22;65507;48.454;-2.058;2023-02-04T02:04:14;10.60;72.40
76613;DHT22;65507;48.454;-2.058;2023-02-04T02:06:41;10.60;72.40
76613;DHT22;65507;48.454;-2.058;2023-02-04T02:09:08;10.60;72.30
76613;DHT22;65507;48.454;-2.058;2023-02-04T02:11:34;10.60;72.50
76613;DHT22;65507;48.454;-2.058;2023-02-04T02:13:59;10.60;72.50
76613;DHT22;65507;48.454;-2.058;2023-02-04T02:16:25;10.60;72.40
76613;DHT22;65507;48.454;-2.058;2023-02-04T02:18:51;10.70;72.40
76613;DHT22;65507;48.454;-2.058;2023-02-04T02:21:29;10.70;72.40
76613;DHT22;65507;48.454;-2.058;2023-02-04T02:23:55;10.70;72.40
76613;DHT22;65507;48.454;-2.058;2023-02-04T02:26:21;10.70;72.30
76613;DHT22;65507;48.454;-2.058;2023-02-04T02:28:48;10.70;72.40
76613;DHT22;65507;48.454;-2.058;2023-02-04T02:31:14;10.70;72.40
76613;DHT22;65507;48.454;-2.058;2023-02-04T02:33:42;10.60;72.40
76613;DHT22;65507;48.454;-2.058;2023-02-04T02:36:08;10.60;72.50
76613;DHT22;65507;48.454;-2.058;2023-02-04T02:38:34;10.60;72.70
76613;DHT22;65507;48.454;-2.058;2023-02-04T02:41:00;10.60;72.60
76613;DHT22;65507;48.454;-2.058;2023-02-04T02:43:26;10.50;72.50
76613;DHT22;65507;48.454;-2.058;2023-02-04T02:45:53;10.50;72.50
76613;DHT22;65507;48.454;-2.058;2023-02-04T02:48:19;10.50;72.50
76613;DHT22;65507;48.454;-2.058;2023-02-04T02:50:45;10.60;72.50
76613;DHT22;65507;48.454;-2.058;2023-02-04T02:53:11;10.60;72.50
76613;DHT22;65507;48.454;-2.058;2023-02-04T02:55:38;10.60;72.50
76613;DHT22;65507;48.454;-2.058;2023-02-04T02:58:04;10.60;72.40
76613;DHT22;65507;48.454;-2.058;2023-02-04T03:00:29;10.50;72.40
76613;DHT22;65507;48.454;-2.058;2023-02-04T03:02:57;10.50;72.40
76613;DHT22;65507;48.454;-2.058;2023-02-04T03:05:24;10.50;72.40
76613;DHT22;65507;48.454;-2.058;2023-02-04T03:07:50;10.50;72.40
76613;DHT22;65507;48.454;-2.058;2023-02-04T03:10:16;10.50;72.40
76613;DHT22;65507;48.454;-2.058;2023-02-04T03:12:42;10.50;72.30
76613;DHT22;65507;48.454;-2.058;2023-02-04T03:15:08;10.50;72.40
76613;DHT22;65507;48.454;-2.058;2023-02-04T03:17:34;10.50;72.30
76613;DHT22;65507;48.454;-2.058;2023-02-04T03:20:00;10.50;72.40
76613;DHT22;65507;48.454;-2.058;2023-02-04T03:22:25;10.40;72.40
76613;DHT22;65507;48.454;-2.058;2023-02-04T03:24:51;10.40;72.40
76613;DHT22;65507;48.454;-2.058;2023-02-04T03:27:17;10.40;72.40
76613;DHT22;65507;48.454;-2.058;2023-02-04T03:29:44;10.50;72.40
76613;DHT22;65507;48.454;-2.058;2023-02-04T03:32:10;10.50;72.40
76613;DHT22;65507;48.454;-2.058;2023-02-04T03:34:35;10.50;72.40
76613;DHT22;65507;48.454;-2.058;2023-02-04T03:37:01;10.40;72.40
76613;DHT22;65507;48.454;-2.058;2023-02-04T03:39:26;10.40;72.40
76613;DHT22;65507;48.454;-2.058;2023-02-04T03:41:52;10.40;72.40
76613;DHT22;65507;48.454;-2.058;2023-02-04T03:44:18;10.40;72.50
76613;DHT22;65507;48.454;-2.058;2023-02-04T03:46:43;10.40;72.50
76613;DHT22;65507;48.454;-2.058;2023-02-04T03:49:09;10.40;72.50
76613;DHT22;65507;48.454;-2.058;2023-02-04T03:51:35;10.40;72.50
76613;DHT22;65507;48.454;-2.058;2023-02-04T03:54:00;10.40;72.50
76613;DHT22;65507;48.454;-2.058;2023-02-04T03:56:26;10.40;72.50
76613;DHT22;65507;48.454;-2.058;2023-02-04T03:58:51;10.40;72.40
76613;DHT22;65507;48.454;-2.058;2023-02-04T04:01:17;10.40;72.40
76613;DHT22;65507;48.454;-2.058;2023-02-04T04:03:42;10.40;72.40
76613;DHT22;65507;48.454;-2.058;2023-02-04T04:06:08;10.40;72.40
76613;DHT22;65507;48.454;-2.058;2023-02-04T04:08:35;10.40;72.40
76613;DHT22;65507;48.454;-2.058;2023-02-04T04:11:01;10.40;72.30
76613;DHT22;65507;48.454;-2.058;2023-02-04T04:13:26;10.40;72.30
76613;DHT22;65507;48.454;-2.058;2023-02-04T04:15:52;10.40;72.40
76613;DHT22;65507;48.454;-2.058;2023-02-04T04:18:17;10.40;72.40
76613;DHT22;65507;48.454;-2.058;2023-02-04T04:20:43;10.40;72.40
76613;DHT22;65507;48.454;-2.058;2023-02-04T04:23:09;10.40;72.40
76613;DHT22;65507;48.454;-2.058;2023-02-04T04:25:34;10.30;72.40
76613;DHT22;65507;48.454;-2.058;2023-02-04T04:28:00;10.40;72.50
76613;DHT22;65507;48.454;-2.058;2023-02-04T04:30:25;10.30;72.40
76613;DHT22;65507;48.454;-2.058;2023-02-04T04:32:51;10.30;72.40
76613;DHT22;65507;48.454;-2.058;2023-02-04T04:35:16;10.30;72.40
76613;DHT22;65507;48.454;-2.058;2023-02-04T04:37:42;10.30;72.50
76613;DHT22;65507;48.454;-2.058;2023-02-04T04:40:10;10.30;72.50
76613;DHT22;65507;48.454;-2.058;2023-02-04T04:42:35;10.20;72.60
76613;DHT22;65507;48.454;-2.058;2023-02-04T04:45:01;10.20;72.60
76613;DHT22;65507;48.454;-2.058;2023-02-04T04:47:27;10.20;72.70
76613;DHT22;65507;48.454;-2.058;2023-02-04T04:49:52;10.30;72.70
76613;DHT22;65507;48.454;-2.058;2023-02-04T04:52:18;10.20;72.60
76613;DHT22;65507;48.454;-2.058;2023-02-04T04:54:43;10.30;72.50
76613;DHT22;65507;48.454;-2.058;2023-02-04T04:57:09;10.30;72.50
76613;DHT22;65507;48.454;-2.058;2023-02-04T04:59:35;10.20;72.50
76613;DHT22;65507;48.454;-2.058;2023-02-04T05:02:00;10.20;72.60
76613;DHT22;65507;48.454;-2.058;2023-02-04T05:04:26;10.20;72.60
76613;DHT22;65507;48.454;-2.058;2023-02-04T05:06:52;10.20;72.60
76613;DHT22;65507;48.454;-2.058;2023-02-04T05:09:17;10.20;72.60
76613;DHT22;65507;48.454;-2.058;2023-02-04T05:11:43;10.20;72.60
76613;DHT22;65507;48.454;-2.058;2023-02-04T05:14:08;10.20;72.60
76613;DHT22;65507;48.454;-2.058;2023-02-04T05:16:34;10.20;72.70
76613;DHT22;65507;48.454;-2.058;2023-02-04T05:18:59;10.20;72.70
76613;DHT22;65507;48.454;-2.058;2023-02-04T05:21:25;10.10;72.70
76613;DHT22;65507;48.454;-2.058;2023-02-04T05:23:51;10.10;72.80
76613;DHT22;65507;48.454;-2.058;2023-02-04T05:26:16;10.10;72.80
76613;DHT22;65507;48.454;-2.058;2023-02-04T05:28:42;10.10;72.80
76613;DHT22;65507;48.454;-2.058;2023-02-04T05:31:07;10.10;72.70
76613;DHT22;65507;48.454;-2.058;2023-02-04T05:33:33;10.10;72.70
76613;DHT22;65507;48.454;-2.058;2023-02-04T05:35:58;10.10;72.70
76613;DHT22;65507;48.454;-2.058;2023-02-04T05:38:24;10.10;72.70
76613;DHT22;65507;48.454;-2.058;2023-02-04T05:40:49;10.10;72.70
76613;DHT22;65507;48.454;-2.058;2023-02-04T05:43:15;10.10;72.60
76613;DHT22;65507;48.454;-2.058;2023-02-04T05:45:41;10.20;72.80
76613;DHT22;65507;48.454;-2.058;2023-02-04T05:48:06;10.10;72.70
76613;DHT22;65507;48.454;-2.058;2023-02-04T05:50:32;10.10;72.70
76613;DHT22;65507;48.454;-2.058;2023-02-04T05:52:57;10.10;72.70
76613;DHT22;65507;48.454;-2.058;2023-02-04T05:55:26;10.10;72.70
76613;DHT22;65507;48.454;-2.058;2023-02-04T05:57:52;10.10;72.60
76613;DHT22;65507;48.454;-2.058;2023-02-04T06:00:17;10.10;72.70
76613;DHT22;65507;48.454;-2.058;2023-02-04T06:02:43;10.10;72.70
76613;DHT22;65507;48.454;-2.058;2023-02-04T06:05:08;10.10;72.60
76613;DHT22;65507;48.454;-2.058;2023-02-04T06:07:34;10.10;72.60
76613;DHT22;65507;48.454;-2.058;2023-02-04T06:10:00;10.10;73.50
76613;DHT22;65507;48.454;-2.058;2023-02-04T06:12:25;10.10;72.70
76613;DHT22;65507;48.454;-2.058;2023-02-04T06:14:51;10.10;72.70
76613;DHT22;65507;48.454;-2.058;2023-02-04T06:17:16;10.10;72.70
76613;DHT22;65507;48.454;-2.058;2023-02-04T06:19:42;10.10;72.70
76613;DHT22;65507;48.454;-2.058;2023-02-04T06:22:08;10.10;72.70
76613;DHT22;65507;48.454;-2.058;2023-02-04T06:24:33;10.10;72.70
76613;DHT22;65507;48.454;-2.058;2023-02-04T06:26:59;10.10;72.70
76613;DHT22;65507;48.454;-2.058;2023-02-04T06:29:24;10.10;72.70
76613;DHT22;65507;48.454;-2.058;2023-02-04T06:31:50;10.10;72.70
76613;DHT22;65507;48.454;-2.058;2023-02-04T06:34:15;10.00;72.60
76613;DHT22;65507;48.454;-2.058;2023-02-04T06:36:41;10.00;72.70
76613;DHT22;65507;48.454;-2.058;2023-02-04T06:39:07;10.00;72.70
76613;DHT22;65507;48.454;-2.058;2023-02-04T06:41:32;10.00;72.70
76613;DHT22;65507;48.454;-2.058;2023-02-04T06:43:58;10.00;72.70
76613;DHT22;65507;48.454;-2.058;2023-02-04T06:46:23;10.00;72.70
76613;DHT22;65507;48.454;-2.058;2023-02-04T06:48:49;10.00;72.80
76613;DHT22;65507;48.454;-2.058;2023-02-04T06:51:14;10.00;72.70
76613;DHT22;65507;48.454;-2.058;2023-02-04T06:53:40;10.00;72.70
76613;DHT22;65507;48.454;-2.058;2023-02-04T06:56:08;10.00;72.70
76613;DHT22;65507;48.454;-2.058;2023-02-04T06:58:34;10.00;72.70
76613;DHT22;65507;48.454;-2.058;2023-02-04T07:01:00;10.00;72.70
76613;DHT22;65507;48.454;-2.058;2023-02-04T07:03:26;10.00;72.70
76613;DHT22;65507;48.454;-2.058;2023-02-04T07:05:51;10.00;72.70
76613;DHT22;65507;48.454;-2.058;2023-02-04T07:08:18;10.00;72.70
76613;DHT22;65507;48.454;-2.058;2023-02-04T07:10:46;10.00;72.70
76613;DHT22;65507;48.454;-2.058;2023-02-04T07:13:11;10.00;72.80
76613;DHT22;65507;48.454;-2.058;2023-02-04T07:15:37;9.90;72.80
76613;DHT22;65507;48.454;-2.058;2023-02-04T07:18:03;9.90;72.90
76613;DHT22;65507;48.454;-2.058;2023-02-04T07:20:28;9.90;72.90
76613;DHT22;65507;48.454;-2.058;2023-02-04T07:22:54;10.00;72.80
76613;DHT22;65507;48.454;-2.058;2023-02-04T07:25:19;10.00;72.80
76613;DHT22;65507;48.454;-2.058;2023-02-04T07:27:45;10.00;72.70
76613;DHT22;65507;48.454;-2.058;2023-02-04T07:30:10;10.00;72.70
76613;DHT22;65507;48.454;-2.058;2023-02-04T07:32:36;10.00;72.70
76613;DHT22;65507;48.454;-2.058;2023-02-04T07:35:02;10.10;72.60
76613;DHT22;65507;48.454;-2.058;2023-02-04T07:37:27;10.10;72.50
76613;DHT22;65507;48.454;-2.058;2023-02-04T07:39:53;10.20;72.40
76613;DHT22;65507;48.454;-2.058;2023-02-04T07:42:18;10.20;72.40
76613;DHT22;65507;48.454;-2.058;2023-02-04T07:44:44;10.20;72.30
76613;DHT22;65507;48.454;-2.058;2023-02-04T07:47:09;10.30;72.30
76613;DHT22;65507;48.454;-2.058;2023-02-04T07:49:36;10.30;72.30
76613;DHT22;65507;48.454;-2.058;2023-02-04T07:52:01;10.30;72.20
76613;DHT22;65507;48.454;-2.058;2023-02-04T07:54:27;10.30;72.20
76613;DHT22;65507;48.454;-2.058;2023-02-04T07:56:53;10.30;72.20
76613;DHT22;65507;48.454;-2.058;2023-02-04T07:59:18;10.40;72.30
76613;DHT22;65507;48.454;-2.058;2023-02-04T08:01:44;10.40;72.30
76613;DHT22;65507;48.454;-2.058;2023-02-04T08:04:10;10.40;72.30
76613;DHT22;65507;48.454;-2.058;2023-02-04T08:06:35;10.30;72.40
76613;DHT22;65507;48.454;-2.058;2023-02-04T08:09:01;10.30;72.40
76613;DHT22;65507;48.454;-2.058;2023-02-04T08:11:26;10.40;72.50
76613;DHT22;65507;48.454;-2.058;2023-02-04T08:13:52;10.40;72.50
76613;DHT22;65507;48.454;-2.058;2023-02-04T08:16:18;10.40;72.50
76613;DHT22;65507;48.454;-2.058;2023-02-04T08:18:43;10.30;72.50
76613;DHT22;65507;48.454;-2.058;2023-02-04T08:21:09;10.30;72.60
76613;DHT22;65507;48.454;-2.058;2023-02-04T08:23:34;10.30;72.70
76613;DHT22;65507;48.454;-2.058;2023-02-04T08:26:07;10.30;72.60
76613;DHT22;65507;48.454;-2.058;2023-02-04T08:28:32;10.40;72.60
76613;DHT22;65507;48.454;-2.058;2023-02-04T08:30:58;10.30;73.50
76613;DHT22;65507;48.454;-2.058;2023-02-04T08:33:23;10.30;72.70
76613;DHT22;65507;48.454;-2.058;2023-02-04T08:35:49;10.30;72.80
76613;DHT22;65507;48.454;-2.058;2023-02-04T08:38:16;10.30;72.70
76613;DHT22;65507;48.454;-2.058;2023-02-04T08:40:41;10.30;72.70
76613;DHT22;65507;48.454;-2.058;2023-02-04T08:43:07;10.30;72.70
76613;DHT22;65507;48.454;-2.058;2023-02-04T08:45:33;10.30;72.50
76613;DHT22;65507;48.454;-2.058;2023-02-04T08:47:58;10.40;72.50
76613;DHT22;65507;48.454;-2.058;2023-02-04T08:50:24;10.40;72.50
76613;DHT22;65507;48.454;-2.058;2023-02-04T08:52:50;10.40;72.40
76613;DHT22;65507;48.454;-2.058;2023-02-04T08:55:15;10.40;72.40
76613;DHT22;65507;48.454;-2.058;2023-02-04T08:57:41;10.40;72.30
76613;DHT22;65507;48.454;-2.058;2023-02-04T09:00:06;10.40;72.20
76613;DHT22;65507;48.454;-2.058;2023-02-04T09:02:33;10.40;72.20
76613;DHT22;65507;48.454;-2.058;2023-02-04T09:04:58;10.40;72.10
76613;DHT22;65507;48.454;-2.058;2023-02-04T09:07:24;10.40;72.10
76613;DHT22;65507;48.454;-2.058;2023-02-04T09:09:49;10.40;72.20
76613;DHT22;65507;48.454;-2.058;2023-02-04T09:12:15;10.40;72.20
76613;DHT22;65507;48.454;-2.058;2023-02-04T09:14:41;10.40;72.10
76613;DHT22;65507;48.454;-2.058;2023-02-04T09:17:06;10.40;72.30
76613;DHT22;65507;48.454;-2.058;2023-02-04T09:19:32;10.40;72.20
76613;DHT22;65507;48.454;-2.058;2023-02-04T09:21:58;10.30;72.20
76613;DHT22;65507;48.454;-2.058;2023-02-04T09:24:23;10.40;72.20
76613;DHT22;65507;48.454;-2.058;2023-02-04T09:26:49;10.30;72.10
76613;DHT22;65507;48.454;-2.058;2023-02-04T09:29:15;10.30;72.20
76613;DHT22;65507;48.454;-2.058;2023-02-04T09:31:40;10.30;72.20
76613;DHT22;65507;48.454;-2.058;2023-02-04T09:34:06;10.40;72.10
76613;DHT22;65507;48.454;-2.058;2023-02-04T09:36:31;10.40;72.00
76613;DHT22;65507;48.454;-2.058;2023-02-04T09:39:03;10.50;72.00
76613;DHT22;65507;48.454;-2.058;2023-02-04T09:41:28;10.50;71.90
76613;DHT22;65507;48.454;-2.058;2023-02-04T09:43:54;10.50;72.00
76613;DHT22;65507;48.454;-2.058;2023-02-04T09:46:21;10.50;71.90
76613;DHT22;65507;48.454;-2.058;2023-02-04T09:48:48;10.50;72.00
76613;DHT22;65507;48.454;-2.058;2023-02-04T09:51:16;10.50;72.00
76613;DHT22;65507;48.454;-2.058;2023-02-04T09:53:42;10.50;72.00
76613;DHT22;65507;48.454;-2.058;2023-02-04T09:56:11;10.60;72.00
76613;DHT22;65507;48.454;-2.058;2023-02-04T09:58:38;10.60;71.80
76613;DHT22;65507;48.454;-2.058;2023-02-04T10:01:14;10.70;71.90
76613;DHT22;65507;48.454;-2.058;2023-02-04T10:03:40;10.70;71.80
76613;DHT22;65507;48.454;-2.058;2023-02-04T10:06:14;10.80;71.80
76613;DHT22;65507;48.454;-2.058;2023-02-04T10:08:40;10.80;71.80
76613;DHT22;65507;48.454;-2.058;2023-02-04T10:11:06;10.80;71.90
76613;DHT22;65507;48.454;-2.058;2023-02-04T10:13:42;10.70;71.90
76613;DHT22;65507;48.454;-2.058;2023-02-04T10:16:12;10.70;71.90
76613;DHT22;65507;48.454;-2.058;2023-02-04T10:18:38;10.70;71.90
76613;DHT22;65507;48.454;-2.058;2023-02-04T10:21:17;10.70;71.90
76613;DHT22;65507;48.454;-2.058;2023-02-04T10:23:44;10.70;72.00
76613;DHT22;65507;48.454;-2.058;2023-02-04T10:26:12;10.70;72.10
76613;DHT22;65507;48.454;-2.058;2023-02-04T10:28:38;10.70;72.10
76613;DHT22;65507;48.454;-2.058;2023-02-04T10:31:05;10.70;72.10
76613;DHT22;65507;48.454;-2.058;2023-02-04T10:33:32;10.70;72.10
76613;DHT22;65507;48.454;-2.058;2023-02-04T10:35:59;10.70;72.10
76613;DHT22;65507;48.454;-2.058;2023-02-04T10:38:25;10.70;72.10
76613;DHT22;65507;48.454;-2.058;2023-02-04T10:41:04;10.60;72.10
76613;DHT22;65507;48.454;-2.058;2023-02-04T10:43:30;10.60;72.10
76613;DHT22;65507;48.454;-2.058;2023-02-04T10:46:00;10.60;72.10
76613;DHT22;65507;48.454;-2.058;2023-02-04T10:48:26;10.60;72.10
76613;DHT22;65507;48.454;-2.058;2023-02-04T10:50:54;10.70;72.10
76613;DHT22;65507;48.454;-2.058;2023-02-04T10:53:21;10.70;72.10
76613;DHT22;65507;48.454;-2.058;2023-02-04T10:56:11;10.60;71.90
76613;DHT22;65507;48.454;-2.058;2023-02-04T10:58:39;10.70;71.90
76613;DHT22;65507;48.454;-2.058;2023-02-04T11:01:08;10.70;71.90
76613;DHT22;65507;48.454;-2.058;2023-02-04T11:03:33;10.80;71.80
76613;DHT22;65507;48.454;-2.058;2023-02-04T11:05:59;10.80;71.70
76613;DHT22;65507;48.454;-2.058;2023-02-04T11:08:32;10.90;71.60
76613;DHT22;65507;48.454;-2.058;2023-02-04T11:10:59;10.90;71.50
76613;DHT22;65507;48.454;-2.058;2023-02-04T11:13:27;10.90;71.40
76613;DHT22;65507;48.454;-2.058;2023-02-04T11:16:08;10.90;71.40
76613;DHT22;65507;48.454;-2.058;2023-02-04T11:18:50;11.00;71.20
76613;DHT22;65507;48.454;-2.058;2023-02-04T11:22:03;10.60;71.00
76613;DHT22;65507;48.454;-2.058;2023-02-04T11:24:02;11.10;71.10
76613;DHT22;65507;48.454;-2.058;2023-02-04T11:26:33;10.60;70.80
76613;DHT22;65507;48.454;-2.058;2023-02-04T11:34:02;11.10;70.90
76613;DHT22;65507;48.454;-2.058;2023-02-04T11:36:31;11.10;70.90
76613;DHT22;65507;48.454;-2.058;2023-02-04T11:39:05;11.10;70.90
76613;DHT22;65507;48.454;-2.058;2023-02-04T11:41:31;11.20;70.90
76613;DHT22;65507;48.454;-2.058;2023-02-04T11:43:57;11.10;70.80
76613;DHT22;65507;48.454;-2.058;2023-02-04T11:46:25;11.10;70.80
76613;DHT22;65507;48.454;-2.058;2023-02-04T11:48:54;11.10;71.00
76613;DHT22;65507;48.454;-2.058;2023-02-04T11:51:21;11.10;71.00
76613;DHT22;65507;48.454;-2.058;2023-02-04T11:53:51;11.00;71.00
76613;DHT22;65507;48.454;-2.058;2023-02-04T11:56:17;11.00;71.10
76613;DHT22;65507;48.454;-2.058;2023-02-04T11:58:43;11.10;71.10
76613;DHT22;65507;48.454;-2.058;2023-02-04T12:01:16;11.10;70.90
76613;DHT22;65507;48.454;-2.058;2023-02-04T12:03:45;11.20;70.70
76613;DHT22;65507;48.454;-2.058;2023-02-04T12:06:18;11.10;70.60
76613;DHT22;65507;48.454;-2.058;2023-02-04T12:08:44;11.20;70.80
76613;DHT22;65507;48.454;-2.058;2023-02-04T12:11:11;11.20;70.70
76613;DHT22;65507;48.454;-2.058;2023-02-04T12:13:47;11.20;70.60
76613;DHT22;65507;48.454;-2.058;2023-02-04T12:16:13;11.20;70.60
76613;DHT22;65507;48.454;-2.058;2023-02-04T12:18:39;11.20;70.60
76613;DHT22;65507;48.454;-2.058;2023-02-04T12:21:04;11.20;70.70
76613;DHT22;65507;48.454;-2.058;2023-02-04T12:23:31;11.30;70.70
76613;DHT22;65507;48.454;-2.058;2023-02-04T12:25:56;11.30;70.60
76613;DHT22;65507;48.454;-2.058;2023-02-04T12:28:22;11.40;70.50
76613;DHT22;65507;48.454;-2.058;2023-02-04T12:30:48;11.40;70.50
76613;DHT22;65507;48.454;-2.058;2023-02-04T12:33:14;11.50;70.40
76613;DHT22;65507;48.454;-2.058;2023-02-04T12:35:39;11.50;70.30
76613;DHT22;65507;48.454;-2.058;2023-02-04T12:38:05;11.50;70.40
76613;DHT22;65507;48.454;-2.058;2023-02-04T12:40:31;11.50;70.50
76613;DHT22;65507;48.454;-2.058;2023-02-04T12:42:56;11.60;70.50
76613;DHT22;65507;48.454;-2.058;2023-02-04T12:45:22;11.60;70.50
76613;DHT22;65507;48.454;-2.058;2023-02-04T12:47:48;11.60;70.40
76613;DHT22;65507;48.454;-2.058;2023-02-04T12:50:15;11.50;70.50
76613;DHT22;65507;48.454;-2.058;2023-02-04T12:52:50;11.40;70.60
76613;DHT22;65507;48.454;-2.058;2023-02-04T12:55:16;11.40;70.70
76613;DHT22;65507;48.454;-2.058;2023-02-04T12:57:41;11.30;70.80
76613;DHT22;65507;48.454;-2.058;2023-02-04T13:00:07;11.30;70.80
76613;DHT22;65507;48.454;-2.058;2023-02-04T13:02:33;11.30;70.90
76613;DHT22;65507;48.454;-2.058;2023-02-04T13:04:58;11.20;70.80
76613;DHT22;65507;48.454;-2.058;2023-02-04T13:07:24;11.20;70.80
76613;DHT22;65507;48.454;-2.058;2023-02-04T13:09:49;11.20;70.90
76613;DHT22;65507;48.454;-2.058;2023-02-04T13:12:15;11.10;70.90
76613;DHT22;65507;48.454;-2.058;2023-02-04T13:14:41;11.10;70.90
76613;DHT22;65507;48.454;-2.058;2023-02-04T13:17:07;11.10;70.90
76613;DHT22;65507;48.454;-2.058;2023-02-04T13:19:32;11.00;70.80
76613;DHT22;65507;48.454;-2.058;2023-02-04T13:21:58;11.00;70.80
76613;DHT22;65507;48.454;-2.058;2023-02-04T13:24:24;11.00;70.80
76613;DHT22;65507;48.454;-2.058;2023-02-04T13:26:49;11.00;70.70
76613;DHT22;65507;48.454;-2.058;2023-02-04T13:29:16;11.00;70.70
76613;DHT22;65507;48.454;-2.058;2023-02-04T13:31:41;11.00;70.70
76613;DHT22;65507;48.454;-2.058;2023-02-04T13:34:07;11.00;70.60
76613;DHT22;65507;48.454;-2.058;2023-02-04T13:36:32;11.00;70.40
76613;DHT22;65507;48.454;-2.058;2023-02-04T13:38:58;11.00;70.40
76613;DHT22;65507;48.454;-2.058;2023-02-04T13:41:25;11.00;70.50
76613;DHT22;65507;48.454;-2.058;2023-02-04T13:43:51;11.00;71.00
76613;DHT22;65507;48.454;-2.058;2023-02-04T13:46:16;11.00;70.50
76613;DHT22;65507;48.454;-2.058;2023-02-04T13:48:42;11.00;70.50
76613;DHT22;65507;48.454;-2.058;2023-02-04T13:51:08;11.00;70.50
76613;DHT22;65507;48.454;-2.058;2023-02-04T13:53:33;11.00;70.40
76613;DHT22;65507;48.454;-2.058;2023-02-04T13:55:59;10.90;70.40
76613;DHT22;65507;48.454;-2.058;2023-02-04T13:58:25;10.90;70.40
76613;DHT22;65507;48.454;-2.058;2023-02-04T14:00:51;10.90;70.40
76613;DHT22;65507;48.454;-2.058;2023-02-04T14:03:24;10.90;70.40
76613;DHT22;65507;48.454;-2.058;2023-02-04T14:05:50;10.90;70.40
76613;DHT22;65507;48.454;-2.058;2023-02-04T14:08:16;11.00;70.30
76613;DHT22;65507;48.454;-2.058;2023-02-04T14:10:41;10.90;70.20
76613;DHT22;65507;48.454;-2.058;2023-02-04T14:13:07;10.90;70.20
76613;DHT22;65507;48.454;-2.058;2023-02-04T14:15:32;10.90;70.30
76613;DHT22;65507;48.454;-2.058;2023-02-04T14:18:07;10.90;70.30
76613;DHT22;65507;48.454;-2.058;2023-02-04T14:20:33;10.90;70.20
76613;DHT22;65507;48.454;-2.058;2023-02-04T14:22:59;10.90;70.20
76613;DHT22;65507;48.454;-2.058;2023-02-04T14:25:24;10.90;70.20
76613;DHT22;65507;48.454;-2.058;2023-02-04T14:27:50;10.90;70.20
76613;DHT22;65507;48.454;-2.058;2023-02-04T14:30:20;10.80;70.20
76613;DHT22;65507;48.454;-2.058;2023-02-04T14:32:45;10.80;70.30
76613;DHT22;65507;48.454;-2.058;2023-02-04T14:35:11;10.90;70.30
76613;DHT22;65507;48.454;-2.058;2023-02-04T14:37:37;10.90;70.30
76613;DHT22;65507;48.454;-2.058;2023-02-04T14:40:03;10.90;70.10
76613;DHT22;65507;48.454;-2.058;2023-02-04T14:42:29;11.00;70.10
76613;DHT22;65507;48.454;-2.058;2023-02-04T14:44:54;11.00;70.00
76613;DHT22;65507;48.454;-2.058;2023-02-04T14:47:20;11.10;70.00
76613;DHT22;65507;48.454;-2.058;2023-02-04T14:49:46;11.10;69.90
76613;DHT22;65507;48.454;-2.058;2023-02-04T14:52:11;11.20;69.90
76613;DHT22;65507;48.454;-2.058;2023-02-04T14:54:38;11.10;69.90
76613;DHT22;65507;48.454;-2.058;2023-02-04T14:57:04;11.10;70.00
76613;DHT22;65507;48.454;-2.058;2023-02-04T14:59:29;11.10;70.10
76613;DHT22;65507;48.454;-2.058;2023-02-04T15:01:55;11.00;70.10
76613;DHT22;65507;48.454;-2.058;2023-02-04T15:04:20;11.10;70.20
76613;DHT22;65507;48.454;-2.058;2023-02-04T15:06:46;11.10;70.10
76613;DHT22;65507;48.454;-2.058;2023-02-04T15:09:12;11.20;70.00
76613;DHT22;65507;48.454;-2.058;2023-02-04T15:11:37;11.20;70.00
76613;DHT22;65507;48.454;-2.058;2023-02-04T15:14:03;11.20;69.90